Tuesday, July 23, 2019, 11:08 PM EDT
Back to Local

KMHT, Manchester Airport

Location: Manchester, NH, United States Lat: 42.933
Local Time: 11:08 PM EDT ( 3:08 GMT) Lon: -71.433
Time Zone: US/Eastern Elev: 232 ft

Show me the last for .
Show Coded

Time T Td Feel RH Dir Speed Gust Alt SLP Vis Weather Sky Remarks
2019-07-23 22:53 66 62 - 87 200° 5 - 29.92 29.95 10 BKN100 BKN180 None
2019-07-23 21:53 67 62 - 84 150° 3 - 29.91 29.94 10 FEW100 BKN200 None
2019-07-23 20:53 69 62 - 78 190° 5 - 29.89 29.92 10 FEW100 BKN200 None
2019-07-23 19:53 70 60 - 70 210° 5 - 29.89 29.92 10 FEW090 BKN200 6-hr Min Temp (8pm): 68.0°F
6-hr Max Temp (8pm): 73.9°F
2019-07-23 18:53 71 59 76 65 190° 5 - 29.87 29.90 10 FEW090 BKN220 None
2019-07-23 17:53 72 57 76 59 230° 3 - 29.87 29.90 10 FEW025 FEW090 BKN220 None
2019-07-23 16:53 74 55 77 51 350° 6 - 29.86 29.89 10 FEW022 SCT070 BKN090 BKN250 None
2019-07-23 15:53 70 56 - 61 Variable 6 - 29.87 29.90 10 FEW022 BKN070 OVC120 None
2019-07-23 14:53 69 55 - 60 Variable 6 - 29.86 29.89 10 FEW020 BKN065 OVC085 None
2019-07-23 13:53 68 56 - 65 360° 13 - 29.85 29.89 10 FEW018 OVC050 6-hr Precip Total (2pm): 0.02"
6-hr Min Temp (2pm): 62.1°F
6-hr Max Temp (2pm): 68.0°F
2019-07-23 13:00 66 58 - 75 20° 9 - 29.85 - 10 SCT022 OVC046 None
2019-07-23 12:53 65 57 - 75 40° 8 - 29.85 29.88 10 FEW014 BKN022 OVC046 None
2019-07-23 12:33 65 59 - 81 50° 7 - 29.85 - 10 FEW014 BKN022 OVC048 None
2019-07-23 11:56 63 59 - 86 60° 3 - 29.85 - 10 FEW009 SCT024 OVC047 None
2019-07-23 11:53 63 60 - 90 Variable 5 - 29.85 29.88 10 SCT011 BKN024 OVC047 1-hr Precip Total: Trace
2019-07-23 11:44 62 59 - 89 100° 5 - 29.85 - 10 SCT008 BKN024 OVC047 1-hr Precip Total: Trace
2019-07-23 10:53 63 60 - 90 20° 8 - 29.84 29.87 6 -RA BR BKN008 OVC014 1-hr Precip Total: 0.01"
6-hr Precip Total (11am): 0.02"
2019-07-23 10:51 63 61 - 93 10° 8 - 29.84 - 7 -RA BKN008 OVC012 1-hr Precip Total: 0.01"
2019-07-23 10:39 62 60 - 93 Variable 6 - 29.84 - 8 -RA BKN010 BKN090 OVC110 1-hr Precip Total: 0.01"
2019-07-23 09:53 63 60 - 90 40° 8 - 29.85 29.88 9 -RA BKN043 OVC060 1-hr Precip Total: Trace
2019-07-23 09:26 63 59 - 86 30° 9 - 29.84 - 10 -RA SCT026 BKN033 OVC060 1-hr Precip Total: Trace
2019-07-23 08:53 63 61 - 93 20° 13 - 29.83 29.87 6 -RA BR FEW010 BKN023 OVC029 1-hr Precip Total: 0.01"
2019-07-23 08:41 63 61 - 93 20° 12 - 29.83 - 6 -RA BR SCT010 BKN016 OVC023 1-hr Precip Total: 0.01"
2019-07-23 08:25 63 61 - 93 20° 10 - 29.83 - 5 -RA BR OVC010 1-hr Precip Total: 0.01"
2019-07-23 07:57 64 62 - 93 10° 7 - 29.84 - 5 -RA BR BKN008 OVC012 1-hr Precip Total: Trace
2019-07-23 07:53 64 62 - 93 10° 6 - 29.84 29.87 5 -RA BR OVC010 1-hr Precip Total: 0.04"
6-hr Precip Total (8am): 0.45"
24-hr Precip Total (8am): 1.06"
6-hr Min Temp (8am): 63.0°F
6-hr Max Temp (8am): 64.9°F
2019-07-23 07:51 64 63 - 93 10° 6 - 29.84 - 5 -RA BR OVC010 1-hr Precip Total: 0.04"
2019-07-23 07:10 64 62 - 93 10° 8 - 29.82 - 6 -RA BR BKN006 BKN016 OVC048 1-hr Precip Total: Trace
2019-07-23 07:02 64 62 - 93 10° 7 - 29.82 - 6 -RA BR SCT006 BKN010 OVC048 1-hr Precip Total: Trace
2019-07-23 06:53 64 62 - 93 40° 7 - 29.82 29.85 5 -RA BR BKN007 BKN022 OVC046 1-hr Precip Total: 0.07"
2019-07-23 06:43 64 62 - 93 30° 7 - 29.82 - 4 -RA BR BKN007 OVC046 1-hr Precip Total: 0.07"
2019-07-23 06:29 64 62 - 93 40° 6 - 29.82 - 3 RA BR SCT007 SCT022 OVC048 1-hr Precip Total: 0.05"
2019-07-23 06:07 64 63 - 96 350° 5 - 29.82 - 5 -RA BR FEW008 SCT016 OVC022 1-hr Precip Total: Trace
2019-07-23 06:00 64 62 - 93 20° 3 - 29.81 - 5 -RA BR FEW010 BKN022 OVC031 1-hr Precip Total: Trace
2019-07-23 05:53 64 62 - 93 20° 7 - 29.81 29.84 5 -RA BR SCT007 BKN014 OVC050 1-hr Precip Total: 0.04"
2019-07-23 04:53 64 62 - 93 20° 9 - 29.79 29.82 5 RA BR BKN009 BKN012 OVC025 1-hr Precip Total: 0.22"
6-hr Precip Total (5am): 0.30"
2019-07-23 04:39 64 63 - 96 40° 6 - 29.78 - 4 RA BR BKN009 OVC012 1-hr Precip Total: 0.20"
2019-07-23 04:33 64 63 - 96 30° 8 - 29.78 - 2 +RA BR BKN006 OVC009 1-hr Precip Total: 0.19"
2019-07-23 03:53 64 63 - 96 30° 6 - 29.79 29.82 5 RA BR BKN009 OVC031 1-hr Precip Total: 0.05"
2019-07-23 02:53 65 63 - 93 10° 5 - 29.79 29.82 4 -RA BR BKN005 BKN018 OVC024 1-hr Precip Total: 0.03"
2019-07-23 01:53 64 63 - 96 360° 8 - 29.81 29.84 3 -RA BR SCT005 BKN010 OVC017 1-hr Precip Total: 0.14"
6-hr Precip Total (2am): 0.39"
6-hr Min Temp (2am): 64.0°F
6-hr Max Temp (2am): 66.9°F
2019-07-23 01:16 65 63 - 93 350° 7 - 29.81 - 3 RA BR SCT005 OVC010 1-hr Precip Total: 0.10"
2019-07-23 00:58 65 63 - 93 340° 7 - 29.81 - 2 +RA BR SCT007 OVC043 1-hr Precip Total: 0.03"
2019-07-23 00:53 65 63 - 93 340° 7 - 29.81 29.84 4 +RA BR FEW010 BKN038 OVC046 1-hr Precip Total: 0.04"
24-hr Min Temp (1am): 64.9°F
24-hr Max Temp (1am): 80.1°F
2019-07-22 23:53 65 63 - 93 30° 5 - 29.81 29.84 6 RA BR FEW010 OVC038 1-hr Precip Total: 0.07"
2019-07-22 23:38 65 63 - 93 30° 9 - 29.80 - 7 -RA SCT010 OVC038 1-hr Precip Total: 0.06"

Support USWX by starting your Amazon purchase here.